Kalbarri, Australia
Current Conditions -  °F | °C
As of 11:30 AM on Thursday 23 Oct 2014 (Local Time) from YGEL Reporting Station
Broken Clouds Broken Clouds  
Wind Chill: 75°   Ceiling: 5500
Heat Index: 75°   Visibility: 6mi
Dew Point: 55°   Wind: 13mph
Humidity: 50%   Direction: 250°WSW
Pressure: 30.03"   Gusts: NA
Location:  27.71°S, 114.16°E
Report Text: YGEL 230330Z 25011KT 9999 SCT030 BKN055 24/13 Q1017
Loading
Personal Weather Stations






























Interactive Weather Map
Tropical Storm Tracking
New forecast layout! Learn more

10-Day Weather Forecast

Advertisements
Track Severe Weather on mobile